Wetterdaten: Woche 30.01.17 - 05.02.17 (KW5)
Datum Zeit Temp. A. Feuchte A. Luftdruck Regen Wind Richtung Taupunkt Windchill Windben
30.01.2017 00:00 -6,2 C 85 % 1028,3 hPa 0,0 l/m 0,4 km/h N -8,3 C -6,2 C 4,8 km/h
30.01.2017 01:00 -6,4 C 85 % 1028,2 hPa 0,0 l/m 0,1 km/h N -8,5 C -6,4 C 3,2 km/h
30.01.2017 02:00 -6,6 C 85 % 1027,9 hPa 0,0 l/m 0,1 km/h N -8,7 C -6,6 C 2,8 km/h
30.01.2017 03:00 -6,7 C 85 % 1027,7 hPa 0,0 l/m 0,1 km/h N -8,8 C -6,7 C 4,8 km/h
30.01.2017 04:00 -6,8 C 85 % 1027,5 hPa 0,0 l/m 0,3 km/h N -8,9 C -6,8 C 4,4 km/h
30.01.2017 05:00 -6,9 C 85 % 1027,3 hPa 0,0 l/m 0,5 km/h N -9,0 C -6,9 C 6,4 km/h
30.01.2017 06:00 -6,9 C 85 % 1027,3 hPa 0,0 l/m 0,3 km/h N -9,0 C -6,9 C 4,8 km/h
30.01.2017 07:00 -7,0 C 85 % 1027,3 hPa 0,0 l/m 0,2 km/h N -9,1 C -7,0 C 4,4 km/h
30.01.2017 08:00 -6,9 C 85 % 1027,2 hPa 0,0 l/m 0,4 km/h N -9,0 C -6,9 C 5,6 km/h
30.01.2017 09:00 -6,9 C 85 % 1027,1 hPa 0,0 l/m 0,3 km/h N -9,0 C -6,9 C 7,2 km/h
30.01.2017 10:00 -6,9 C 85 % 1026,9 hPa 0,0 l/m 0,8 km/h N -9,0 C -6,9 C 7,6 km/h
30.01.2017 11:00 -6,8 C 85 % 1026,5 hPa 0,0 l/m 0,6 km/h N -8,9 C -6,8 C 6,0 km/h
30.01.2017 12:00 -6,7 C 85 % 1025,8 hPa 0,0 l/m 0,6 km/h N -8,8 C -6,7 C 5,2 km/h
30.01.2017 13:00 -6,6 C 85 % 1025,0 hPa 0,0 l/m 0,6 km/h N -8,7 C -6,6 C 5,6 km/h
30.01.2017 14:00 -6,4 C 85 % 1024,5 hPa 0,0 l/m 1,1 km/h N -8,5 C -6,4 C 8,0 km/h
30.01.2017 15:00 -6,3 C 85 % 1024,1 hPa 0,0 l/m 0,4 km/h N -8,4 C -6,3 C 6,0 km/h
30.01.2017 16:00 -6,5 C 85 % 1024,0 hPa 0,0 l/m 0,8 km/h N -8,6 C -6,5 C 6,8 km/h
30.01.2017 17:00 -6,8 C 85 % 1024,0 hPa 0,0 l/m 0,5 km/h N -8,9 C -6,8 C 8,8 km/h
30.01.2017 18:00 -7,2 C 85 % 1023,9 hPa 0,0 l/m 0,7 km/h N -9,3 C -7,2 C 10,1 km/h
30.01.2017 19:00 -7,5 C 85 % 1023,9 hPa 0,0 l/m 0,8 km/h N -9,6 C -7,5 C 7,6 km/h
30.01.2017 20:00 -7,6 C 85 % 1023,8 hPa 0,0 l/m 0,5 km/h N -9,7 C -7,6 C 8,9 km/h
30.01.2017 21:00 -7,8 C 85 % 1023,8 hPa 0,0 l/m 0,4 km/h N -9,9 C -7,8 C 10,5 km/h
30.01.2017 22:00 -7,9 C 85 % 1023,4 hPa 0,0 l/m 0,3 km/h N -10,0 C -7,9 C 10,1 km/h
30.01.2017 23:00 -8,0 C 85 % 1023,3 hPa 0,0 l/m 0,6 km/h N -10,0 C -8,0 C 8,0 km/h
31.01.2017 00:00 -7,9 C 85 % 1022,9 hPa 0,0 l/m 0,3 km/h N -9,9 C -7,9 C 4,8 km/h
31.01.2017 01:00 -7,8 C 85 % 1022,9 hPa 0,0 l/m 0,1 km/h N -9,9 C -7,8 C 4,0 km/h
31.01.2017 02:00 -7,8 C 85 % 1022,8 hPa 0,0 l/m 0,3 km/h N -9,8 C -7,8 C 4,0 km/h
31.01.2017 03:00 -7,7 C 85 % 1022,5 hPa 0,0 l/m 0,2 km/h N -9,8 C -7,7 C 3,2 km/h
31.01.2017 04:00 -7,7 C 85 % 1022,2 hPa 0,0 l/m 0,4 km/h N -9,7 C -7,7 C 4,8 km/h
31.01.2017 05:00 -7,6 C 85 % 1022,3 hPa 0,0 l/m 0,1 km/h N -9,7 C -7,6 C 4,4 km/h
31.01.2017 06:00 -7,4 C 85 % 1022,1 hPa 0,0 l/m 0,3 km/h N -9,5 C -7,4 C 4,4 km/h
31.01.2017 07:00 -7,4 C 85 % 1022,3 hPa 0,0 l/m 0,5 km/h N -9,5 C -7,4 C 5,6 km/h
31.01.2017 08:00 -7,1 C 85 % 1022,2 hPa 0,0 l/m 0,7 km/h N -9,2 C -7,1 C 5,2 km/h
31.01.2017 09:00 -6,8 C 85 % 1021,9 hPa 0,0 l/m 0,8 km/h N -8,8 C -6,8 C 6,4 km/h
31.01.2017 10:00 -6,2 C 85 % 1021,6 hPa 0,0 l/m 1,0 km/h N -8,3 C -6,2 C 9,2 km/h
31.01.2017 11:00 -5,8 C 85 % 1021,4 hPa 0,0 l/m 1,2 km/h N -7,9 C -5,8 C 8,1 km/h
31.01.2017 12:00 -5,3 C 85 % 1021,2 hPa 0,0 l/m 1,2 km/h N -7,5 C -5,3 C 7,2 km/h
31.01.2017 13:00 -5,3 C 84 % 1021,0 hPa 0,0 l/m 1,0 km/h N -7,5 C -5,3 C 6,0 km/h
31.01.2017 14:00 -5,2 C 84 % 1021,0 hPa 0,0 l/m 0,8 km/h N -7,5 C -5,2 C 5,2 km/h
31.01.2017 15:00 -5,2 C 84 % 1021,3 hPa 0,0 l/m 0,5 km/h N -7,4 C -5,2 C 4,8 km/h
31.01.2017 16:00 -4,9 C 85 % 1021,2 hPa 0,0 l/m 0,1 km/h N -7,1 C -4,9 C 3,2 km/h
31.01.2017 17:00 -4,9 C 85 % 1021,1 hPa 0,0 l/m 0,2 km/h N -7,0 C -4,9 C 4,0 km/h
31.01.2017 18:00 -4,8 C 85 % 1021,3 hPa 0,0 l/m 0,3 km/h N -6,9 C -4,8 C 4,8 km/h
31.01.2017 19:00 -4,7 C 85 % 1021,2 hPa 0,0 l/m 0,0 km/h N -6,8 C -4,7 C 2,0 km/h
31.01.2017 20:00 -4,6 C 85 % 1021,0 hPa 0,0 l/m 0,0 km/h N -6,7 C -4,6 C 1,2 km/h
31.01.2017 21:00 -4,6 C 85 % 1021,0 hPa 0,0 l/m 0,0 km/h N -6,7 C -4,6 C 1,2 km/h
31.01.2017 22:00 -4,7 C 85 % 1021,2 hPa 0,0 l/m 0,0 km/h N -6,8 C -4,7 C 1,6 km/h
31.01.2017 23:00 -5,1 C 85 % 1021,2 hPa 0,0 l/m 0,0 km/h N -7,2 C -5,1 C 1,2 km/h
01.02.2017 00:00 -4,9 C 87 % 1021,1 hPa 0,0 l/m 0,0 km/h N -6,8 C -4,9 C 1,2 km/h
01.02.2017 01:00 -4,6 C 85 % 1021,0 hPa 0,0 l/m 0,0 km/h N -6,8 C -4,6 C 1,2 km/h
01.02.2017 02:00 -4,3 C 85 % 1021,5 hPa 0,0 l/m 0,2 km/h N -6,4 C -4,3 C 2,0 km/h
01.02.2017 03:00 -4,0 C 85 % 1021,5 hPa 0,0 l/m 0,0 km/h N -6,2 C -4,0 C 1,2 km/h
01.02.2017 04:00 -4,1 C 85 % 1021,6 hPa 0,0 l/m 0,0 km/h N -6,3 C -4,1 C 0,0 km/h
01.02.2017 05:00 -4,0 C 85 % 1021,9 hPa 0,0 l/m 0,0 km/h N -6,2 C -4,0 C 0,0 km/h
01.02.2017 06:00 -3,8 C 84 % 1022,1 hPa 0,0 l/m 0,0 km/h N -6,1 C -3,8 C 0,0 km/h
01.02.2017 07:00 -3,6 C 85 % 1022,7 hPa 0,0 l/m 0,0 km/h N -5,8 C -3,6 C 0,0 km/h
01.02.2017 08:00 -3,0 C 84 % 1022,9 hPa 0,0 l/m 0,0 km/h N -5,3 C -3,0 C 0,0 km/h
01.02.2017 09:00 -1,9 C 84 % 1023,2 hPa 0,0 l/m 0,0 km/h N -4,2 C -1,9 C 0,0 km/h
01.02.2017 10:00 -1,2 C 84 % 1023,4 hPa 0,0 l/m 0,0 km/h N -3,5 C -1,2 C 0,8 km/h
01.02.2017 11:00 -0,3 C 84 % 1023,2 hPa 0,0 l/m 0,0 km/h N -2,7 C -0,3 C 0,4 km/h
01.02.2017 12:00 -0,0 C 84 % 1022,7 hPa 0,0 l/m 0,0 km/h N -2,4 C -0,0 C 0,4 km/h
01.02.2017 13:00 0,2 C 82 % 1022,3 hPa 0,0 l/m 0,0 km/h N -2,4 C 0,2 C 0,0 km/h
01.02.2017 14:00 0,6 C 82 % 1021,7 hPa 1,0 l/m 0,0 km/h N -2,2 C 0,6 C 0,0 km/h
01.02.2017 15:00 0,3 C 82 % 1021,4 hPa 0,5 l/m 0,0 km/h N -2,5 C 0,3 C 0,0 km/h
01.02.2017 16:00 -0,2 C 82 % 1021,3 hPa 0,0 l/m 0,0 km/h N -2,9 C -0,2 C 0,0 km/h
01.02.2017 17:00 -0,8 C 83 % 1021,5 hPa 0,0 l/m 0,0 km/h N -3,3 C -0,8 C 1,6 km/h
01.02.2017 18:00 -0,9 C 84 % 1021,4 hPa 0,0 l/m 0,1 km/h N -3,3 C -0,9 C 0,8 km/h
01.02.2017 19:00 -0,8 C 84 % 1021,3 hPa 0,3 l/m 0,1 km/h N -3,2 C -0,8 C 1,6 km/h
01.02.2017 20:00 -0,9 C 84 % 1020,9 hPa 0,0 l/m 0,0 km/h N -3,3 C -0,9 C 0,8 km/h
01.02.2017 21:00 -1,0 C 84 % 1020,9 hPa 0,0 l/m 0,0 km/h N -3,4 C -1,0 C 0,0 km/h
01.02.2017 22:00 -1,2 C 84 % 1020,9 hPa 0,0 l/m 0,0 km/h N -3,5 C -1,2 C 0,4 km/h
01.02.2017 23:00 -1,1 C 84 % 1021,0 hPa 0,0 l/m 0,0 km/h N -3,5 C -1,1 C 0,0 km/h
02.02.2017 00:00 -1,3 C 84 % 1020,8 hPa 0,0 l/m 0,0 km/h N -3,6 C -1,3 C 0,0 km/h
02.02.2017 01:00 -1,3 C 84 % 1020,7 hPa 0,0 l/m 0,0 km/h N -3,6 C -1,3 C 0,4 km/h
02.02.2017 02:00 -1,3 C 84 % 1020,5 hPa 0,0 l/m 0,0 km/h N -3,6 C -1,3 C 0,0 km/h
02.02.2017 03:00 -1,8 C 84 % 1020,4 hPa 0,0 l/m 0,0 km/h N -4,1 C -1,8 C 0,0 km/h
02.02.2017 04:00 -2,0 C 84 % 1020,5 hPa 0,0 l/m 0,0 km/h N -4,4 C -2,0 C 0,4 km/h
02.02.2017 05:00 -2,3 C 84 % 1020,3 hPa 0,0 l/m 0,0 km/h N -4,7 C -2,3 C 0,0 km/h
02.02.2017 06:00 -2,6 C 84 % 1020,5 hPa 0,0 l/m 0,0 km/h N -4,9 C -2,6 C 1,2 km/h
02.02.2017 07:00 -2,4 C 84 % 1020,3 hPa 0,0 l/m 0,0 km/h N -4,7 C -2,4 C 0,4 km/h
02.02.2017 08:00 -1,8 C 84 % 1020,2 hPa 0,0 l/m 0,0 km/h N -4,1 C -1,8 C 0,4 km/h
02.02.2017 09:00 -0,7 C 84 % 1019,9 hPa 0,0 l/m 0,0 km/h N -3,0 C -0,7 C 2,0 km/h
02.02.2017 10:00 -0,0 C 84 % 1019,7 hPa 0,0 l/m 0,0 km/h N -2,4 C -0,0 C 1,2 km/h
02.02.2017 11:00 0,7 C 84 % 1019,4 hPa 0,3 l/m 0,0 km/h N -1,7 C 0,7 C 2,0 km/h
02.02.2017 12:00 1,0 C 84 % 1018,3 hPa 0,3 l/m 0,3 km/h N -1,4 C 1,0 C 4,4 km/h
02.02.2017 13:00 1,4 C 84 % 1017,3 hPa 0,5 l/m 0,1 km/h N -1,0 C 1,4 C 3,2 km/h
02.02.2017 14:00 1,3 C 84 % 1017,0 hPa 0,8 l/m 0,0 km/h N -1,2 C 1,3 C 2,0 km/h
02.02.2017 15:00 1,0 C 83 % 1016,6 hPa 0,3 l/m 0,1 km/h N -1,6 C 1,0 C 4,8 km/h
02.02.2017 16:00 0,4 C 83 % 1016,7 hPa 0,5 l/m 0,0 km/h N -2,1 C 0,4 C 1,6 km/h
02.02.2017 17:00 -0,1 C 84 % 1017,0 hPa 0,0 l/m 0,0 km/h N -2,4 C -0,1 C 0,4 km/h
02.02.2017 18:00 -0,3 C 84 % 1017,1 hPa 0,0 l/m 0,0 km/h N -2,7 C -0,3 C 0,0 km/h
02.02.2017 19:00 -0,5 C 84 % 1017,0 hPa 0,0 l/m 0,0 km/h N -2,8 C -0,5 C 0,0 km/h
02.02.2017 20:00 -0,7 C 84 % 1016,6 hPa 0,0 l/m 0,0 km/h N -3,0 C -0,7 C 0,0 km/h
02.02.2017 21:00 -0,7 C 84 % 1016,0 hPa 0,0 l/m 0,0 km/h N -3,1 C -0,7 C 0,0 km/h
02.02.2017 22:00 -0,7 C 84 % 1015,5 hPa 0,0 l/m 0,1 km/h N -3,1 C -0,7 C 2,8 km/h
02.02.2017 23:00 -0,8 C 84 % 1015,0 hPa 0,0 l/m 0,4 km/h N -3,1 C -0,8 C 4,0 km/h
03.02.2017 00:00 -0,8 C 84 % 1014,6 hPa 0,0 l/m 0,2 km/h N -3,2 C -0,8 C 2,4 km/h
03.02.2017 01:00 -0,7 C 84 % 1014,1 hPa 0,0 l/m 0,1 km/h N -3,1 C -0,7 C 2,4 km/h
03.02.2017 02:00 -0,6 C 84 % 1013,5 hPa 0,0 l/m 0,2 km/h N -2,9 C -0,6 C 2,8 km/h
03.02.2017 03:00 -0,8 C 84 % 1013,1 hPa 0,0 l/m 0,0 km/h N -3,1 C -0,8 C 1,2 km/h
03.02.2017 04:00 -1,0 C 84 % 1012,6 hPa 0,0 l/m 0,1 km/h N -3,4 C -1,0 C 1,2 km/h
03.02.2017 05:00 -1,1 C 84 % 1012,4 hPa 0,0 l/m 0,0 km/h N -3,4 C -1,1 C 0,4 km/h
03.02.2017 06:00 -1,1 C 84 % 1012,2 hPa 0,0 l/m 0,0 km/h N -3,4 C -1,1 C 0,0 km/h
03.02.2017 07:00 -1,0 C 84 % 1012,2 hPa 0,0 l/m 0,0 km/h N -3,4 C -1,0 C 0,0 km/h
03.02.2017 08:00 -0,6 C 84 % 1012,2 hPa 0,0 l/m 0,1 km/h N -3,0 C -0,6 C 2,0 km/h
03.02.2017 09:00 0,3 C 84 % 1012,0 hPa 0,0 l/m 0,1 km/h N -2,1 C 0,3 C 2,0 km/h
03.02.2017 10:00 1,2 C 84 % 1012,0 hPa 0,0 l/m 0,0 km/h N -1,2 C 1,2 C 0,4 km/h
03.02.2017 11:00 2,1 C 84 % 1011,5 hPa 0,8 l/m 0,1 km/h N -0,3 C 2,1 C 2,8 km/h
03.02.2017 12:00 2,3 C 84 % 1011,0 hPa 0,5 l/m 0,1 km/h N -0,1 C 2,3 C 4,3 km/h
03.02.2017 13:00 2,8 C 84 % 1010,3 hPa 0,8 l/m 0,0 km/h N 0,4 C 2,8 C 3,2 km/h
03.02.2017 14:00 3,0 C 84 % 1009,8 hPa 1,0 l/m 0,0 km/h N 0,6 C 3,0 C 2,4 km/h
03.02.2017 15:00 2,8 C 84 % 1009,8 hPa 0,3 l/m 0,0 km/h N 0,4 C 2,8 C 0,8 km/h
03.02.2017 16:00 2,0 C 84 % 1009,8 hPa 0,3 l/m 0,0 km/h N -0,5 C 2,0 C 0,0 km/h
03.02.2017 17:00 1,3 C 84 % 1009,9 hPa 0,3 l/m 0,0 km/h N -1,1 C 1,3 C 1,6 km/h
03.02.2017 18:00 0,9 C 84 % 1009,8 hPa 0,0 l/m 0,0 km/h N -1,4 C 0,9 C 0,8 km/h
03.02.2017 19:00 0,8 C 84 % 1009,8 hPa 0,3 l/m 0,0 km/h N -1,6 C 0,8 C 0,0 km/h
03.02.2017 20:00 0,8 C 84 % 1009,3 hPa 0,0 l/m 0,0 km/h N -1,6 C 0,8 C 0,8 km/h
03.02.2017 21:00 0,8 C 84 % 1009,1 hPa 0,0 l/m 0,0 km/h N -1,6 C 0,8 C 0,0 km/h
03.02.2017 22:00 0,8 C 84 % 1008,8 hPa 0,0 l/m 0,0 km/h N -1,6 C 0,8 C 0,0 km/h
03.02.2017 23:00 0,9 C 84 % 1008,9 hPa 0,0 l/m 1,6 km/h N -1,5 C 0,9 C 8,1 km/h
04.02.2017 00:00 0,6 C 84 % 1008,9 hPa 0,0 l/m 5,6 km/h N -1,8 C 0,6 C 17,7 km/h
04.02.2017 01:00 0,6 C 84 % 1008,8 hPa 0,3 l/m 0,0 km/h N -1,8 C 0,6 C 6,4 km/h
04.02.2017 02:00 0,7 C 84 % 1008,5 hPa 0,0 l/m 0,8 km/h N -1,7 C 0,7 C 6,4 km/h
04.02.2017 03:00 0,7 C 84 % 1008,3 hPa 0,0 l/m 0,0 km/h N -1,7 C 0,7 C 7,3 km/h
04.02.2017 04:00 0,5 C 84 % 1008,8 hPa 0,0 l/m 0,0 km/h N -1,9 C 0,5 C 1,6 km/h
04.02.2017 05:00 0,1 C 84 % 1008,8 hPa 0,0 l/m 0,0 km/h N -2,3 C 0,1 C 2,4 km/h
04.02.2017 06:00 0,2 C 84 % 1009,1 hPa 0,0 l/m 0,0 km/h N -2,2 C 0,2 C 3,2 km/h
04.02.2017 07:00 1,2 C 84 % 1009,2 hPa 0,0 l/m 0,4 km/h N -1,2 C 1,2 C 2,4 km/h
04.02.2017 08:00 1,0 C 84 % 1009,3 hPa 0,0 l/m 0,0 km/h N -1,3 C 1,0 C 2,0 km/h
04.02.2017 09:00 1,5 C 84 % 1009,3 hPa 0,3 l/m 0,0 km/h N -0,9 C 1,5 C 1,2 km/h
04.02.2017 10:00 2,7 C 84 % 1009,2 hPa 0,5 l/m 0,1 km/h N 0,3 C 2,7 C 2,0 km/h
04.02.2017 11:00 3,8 C 84 % 1008,3 hPa 0,5 l/m 0,0 km/h N 1,3 C 3,8 C 1,6 km/h
04.02.2017 12:00 4,7 C 84 % 1007,7 hPa 0,8 l/m 0,0 km/h N 2,1 C 4,7 C 1,6 km/h
04.02.2017 13:00 5,3 C 81 % 1006,8 hPa 0,5 l/m 0,1 km/h N 2,3 C 5,3 C 2,8 km/h
04.02.2017 14:00 6,0 C 80 % 1006,0 hPa 0,0 l/m 0,1 km/h N 2,7 C 6,0 C 2,0 km/h
04.02.2017 15:00 6,3 C 78 % 1005,0 hPa 0,3 l/m 0,0 km/h N 2,7 C 6,3 C 1,2 km/h
04.02.2017 16:00 4,9 C 78 % 1004,5 hPa 0,0 l/m 0,0 km/h N 1,5 C 4,9 C 0,0 km/h
04.02.2017 17:00 3,1 C 81 % 1004,7 hPa 0,0 l/m 0,0 km/h N 0,1 C 3,1 C 1,2 km/h
04.02.2017 18:00 2,3 C 83 % 1004,5 hPa 0,0 l/m 0,0 km/h N -0,3 C 2,3 C 0,0 km/h
04.02.2017 19:00 2,0 C 84 % 1004,3 hPa 0,0 l/m 0,0 km/h N -0,4 C 2,0 C 0,4 km/h
04.02.2017 20:00 1,8 C 84 % 1004,3 hPa 0,0 l/m 0,0 km/h N -0,6 C 1,8 C 1,6 km/h
04.02.2017 21:00 1,7 C 84 % 1004,3 hPa 0,0 l/m 0,0 km/h N -0,7 C 1,7 C 0,0 km/h
04.02.2017 22:00 1,8 C 84 % 1004,6 hPa 0,0 l/m 0,0 km/h N -0,7 C 1,8 C 0,8 km/h
04.02.2017 23:00 2,0 C 84 % 1005,1 hPa 0,0 l/m 0,1 km/h N -0,4 C 2,0 C 1,6 km/h
05.02.2017 00:00 2,1 C 84 % 1005,5 hPa 0,0 l/m 1,5 km/h N -0,3 C 2,1 C 10,0 km/h
05.02.2017 01:00 2,3 C 84 % 1005,4 hPa 0,0 l/m 3,8 km/h N -0,1 C 2,3 C 12,1 km/h
05.02.2017 02:00 3,5 C 84 % 1004,9 hPa 0,0 l/m 3,9 km/h N 1,0 C 3,0 C 14,1 km/h
05.02.2017 03:00 6,8 C 77 % 1004,5 hPa 0,0 l/m 14,1 km/h N 3,0 C 1,8 C 37,8 km/h
05.02.2017 04:00 6,9 C 71 % 1005,0 hPa 0,0 l/m 16,1 km/h N 2,0 C 0,9 C 35,0 km/h
05.02.2017 05:00 7,0 C 68 % 1005,9 hPa 0,0 l/m 11,3 km/h N 1,5 C 3,5 C 30,6 km/h
05.02.2017 06:00 6,8 C 67 % 1006,3 hPa 0,0 l/m 6,1 km/h N 1,1 C 6,2 C 18,5 km/h
05.02.2017 07:00 5,9 C 70 % 1006,7 hPa 0,0 l/m 2,5 km/h N 0,8 C 5,9 C 10,0 km/h
05.02.2017 08:00 5,6 C 70 % 1007,0 hPa 0,0 l/m 0,6 km/h N 0,6 C 5,6 C 6,4 km/h
05.02.2017 09:00 7,5 C 59 % 1007,0 hPa 0,0 l/m 4,8 km/h N 0,0 C 7,5 C 18,5 km/h
05.02.2017 10:00 9,4 C 52 % 1007,0 hPa 0,0 l/m 5,0 km/h N -0,1 C 9,4 C 19,3 km/h
05.02.2017 11:00 10,1 C 48 % 1006,6 hPa 0,0 l/m 5,5 km/h N -0,5 C 10,1 C 16,1 km/h
05.02.2017 12:00 10,8 C 46 % 1005,8 hPa 0,0 l/m 1,9 km/h N -0,3 C 10,8 C 8,4 km/h
05.02.2017 13:00 12,1 C 46 % 1005,5 hPa 0,0 l/m 0,2 km/h N 0,7 C 12,1 C 3,6 km/h
05.02.2017 14:00 11,8 C 48 % 1005,0 hPa 0,0 l/m 0,4 km/h N 1,2 C 11,8 C 6,0 km/h
05.02.2017 15:00 10,4 C 54 % 1004,7 hPa 0,0 l/m 0,0 km/h N 1,5 C 10,4 C 1,6 km/h
05.02.2017 16:00 8,3 C 63 % 1004,6 hPa 0,0 l/m 0,0 km/h N 1,6 C 8,3 C 0,0 km/h
05.02.2017 17:00 6,3 C 68 % 1004,7 hPa 0,0 l/m 0,0 km/h N 0,8 C 6,3 C 0,0 km/h
05.02.2017 18:00 4,5 C 75 % 1005,1 hPa 0,0 l/m 0,0 km/h N 0,5 C 4,5 C 0,0 km/h
05.02.2017 19:00 3,6 C 79 % 1005,1 hPa 0,0 l/m 0,0 km/h N 0,2 C 3,6 C 0,0 km/h
05.02.2017 20:00 3,0 C 82 % 1005,1 hPa 0,0 l/m 0,0 km/h N 0,2 C 3,0 C 0,0 km/h
05.02.2017 21:00 3,0 C 83 % 1004,8 hPa 0,0 l/m 0,0 km/h N 0,4 C 3,0 C 0,0 km/h
05.02.2017 22:00 2,6 C 84 % 1004,9 hPa 0,0 l/m 0,0 km/h N 0,1 C 2,6 C 0,0 km/h
05.02.2017 23:00 2,5 C 84 % 1004,7 hPa 0,0 l/m 0,0 km/h N 0,1 C 2,5 C 0,4 km/h
Min-Datum _ 30.01.17 05.02.17 04.02.17 - 30.01.17 - 30.01.17 30.01.17 31.01.17
_ Min-Zeit 23:15 12:30 21:30 - 01:15 - 23:15 23:15 20:45
Minimum _ -8,0 C 45 % 1004,1 hPa - 0,0 km/h - -10,1 C -8,0 C 0,0 km/h
Max-Datum _ 05.02.17 01.02.17 30.01.17 01.02.17 05.02.17 - 05.02.17 05.02.17 05.02.17
_ Max-Zeit 13:30 00:00 00:00 14:15 04:30 - 03:00 13:30 03:45
Maximum _ 12,2 C 92 % 1028,4 hPa 1,0 l/m 18,2 km/h
N
- 3,8 C 12,2 C 53,1 km/h
N
Durchschnitt _ -0,9 C 82 % 1015,9 hPa #11,7 l/m 0,7 km/h N -3,7 C -1,0 C 3,9 km/h